Time;durP1;ratioP1;P1;durP2;ratioP2;P2;SDS_P1;SDS_P2;PMS_P1;PMS_P2;Temp;Humidity;BMP_temperature;BMP_pressure;BME280_temperature;BME280_humidity;BME280_pressure;Samples;Min_cycle;Max_cycle;Signal;HPM_P1;HPM_P2
2020/12/16 00:02:03;;;;;;;49.20;24.65;;;;;;;7.61;100.00;101439.06;6234895;28;20061;-75
2020/12/16 00:05:06;;;;;;;57.17;25.55;;;;;;;7.61;100.00;101436.44;6235264;28;20517;-75
2020/12/16 00:08:07;;;;;;;54.50;26.20;;;;;;;7.59;100.00;101433.88;6234940;28;20046;-75
2020/12/16 00:11:08;;;;;;;58.33;27.70;;;;;;;7.62;100.00;101440.75;6234336;28;20041;-75
2020/12/16 00:14:09;;;;;;;59.53;28.40;;;;;;;7.66;100.00;101449.38;6234465;28;20072;-75
2020/12/16 00:17:10;;;;;;;62.65;28.08;;;;;;;7.66;100.00;101449.38;6233764;28;20049;-75
2020/12/16 00:20:11;;;;;;;66.43;28.17;;;;;;;7.66;100.00;101452.84;6234629;28;20049;-75
2020/12/16 00:23:13;;;;;;;57.97;25.92;;;;;;;7.70;100.00;101451.84;6233532;28;20490;-75
2020/12/16 00:26:14;;;;;;;65.40;27.70;;;;;;;7.69;100.00;101442.31;6235083;28;20073;-75
2020/12/16 00:29:15;;;;;;;50.25;24.52;;;;;;;7.67;100.00;101451.09;6233088;28;20041;-75
2020/12/16 00:32:16;;;;;;;54.33;26.90;;;;;;;7.61;100.00;101460.81;6235589;28;20057;-75
2020/12/16 00:35:17;;;;;;;54.03;26.15;;;;;;;7.64;100.00;101454.66;6233262;28;20076;-75
2020/12/16 00:38:19;;;;;;;48.72;23.90;;;;;;;7.61;100.00;101459.97;6234907;28;20049;-75
2020/12/16 00:41:20;;;;;;;57.10;27.08;;;;;;;7.65;100.00;101463.38;6232982;28;20422;-75
2020/12/16 00:44:21;;;;;;;50.00;23.85;;;;;;;7.66;100.00;101457.22;6244226;28;20053;-74
2020/12/16 00:47:22;;;;;;;55.47;24.85;;;;;;;7.56;100.00;101459.25;6234862;28;20465;-75
2020/12/16 00:50:22;;;;;;;58.28;25.90;;;;;;;7.53;100.00;101454.97;6246652;28;20099;-75
2020/12/16 00:53:24;;;;;;;58.33;26.55;;;;;;;7.54;100.00;101461.94;6246429;28;20482;-75
2020/12/16 00:56:25;;;;;;;61.00;25.90;;;;;;;7.55;100.00;101470.63;6246551;28;20079;-75
2020/12/16 00:59:26;;;;;;;58.88;27.05;;;;;;;7.55;100.00;101470.63;6246269;28;20127;-75
2020/12/16 01:02:27;;;;;;;59.10;26.10;;;;;;;7.61;100.00;101475.66;6246444;28;20409;-75
2020/12/16 01:05:28;;;;;;;61.10;27.58;;;;;;;7.56;100.00;101482.78;6246797;28;20053;-75
2020/12/16 01:08:29;;;;;;;54.70;24.55;;;;;;;7.58;100.00;101483.59;6246182;28;20472;-75
2020/12/16 01:11:30;;;;;;;56.92;25.20;;;;;;;7.54;100.00;101482.84;6246422;28;20050;-75
2020/12/16 01:14:31;;;;;;;60.20;27.13;;;;;;;7.53;100.00;101481.13;6246374;28;20053;-75
2020/12/16 01:17:32;;;;;;;59.63;26.75;;;;;;;7.51;100.00;101475.09;6246411;28;20053;-75
2020/12/16 01:20:33;;;;;;;55.28;25.45;;;;;;;7.51;100.00;101480.31;6282872;22;20052;-71
2020/12/16 01:23:34;;;;;;;58.55;26.77;;;;;;;7.50;100.00;101493.44;6270816;28;20041;-71
2020/12/16 01:26:40;;;;;;;57.35;24.40;;;;;;;7.47;100.00;101494.38;6272868;28;20551;-71
2020/12/16 01:29:41;;;;;;;54.03;24.65;;;;;;;7.48;100.00;101495.22;6254485;28;20057;-71
2020/12/16 01:32:42;;;;;;;53.05;25.40;;;;;;;7.44;100.00;101499.69;6251442;28;20048;-71
2020/12/16 01:35:42;;;;;;;55.45;24.35;;;;;;;7.44;100.00;101499.69;6251202;28;20069;-72
2020/12/16 01:38:44;;;;;;;57.10;24.38;;;;;;;7.46;100.00;101499.66;6250650;28;20049;-71
2020/12/16 01:41:46;;;;;;;65.55;26.63;;;;;;;7.45;100.00;101493.56;6251039;28;20104;-71
2020/12/16 01:44:47;;;;;;;68.22;25.88;;;;;;;7.41;100.00;101488.47;6271563;28;20433;-71
2020/12/16 01:47:48;;;;;;;55.58;25.90;;;;;;;7.40;100.00;101498.06;6275579;28;20083;-71
2020/12/16 01:50:49;;;;;;;63.83;25.60;;;;;;;7.33;100.00;101492.16;6275441;28;20061;-71
2020/12/16 01:53:52;;;;;;;59.92;26.85;;;;;;;7.29;100.00;101492.28;6275768;28;20052;-71
2020/12/16 01:56:56;;;;;;;57.92;27.38;;;;;;;7.25;100.00;101496.72;6275066;28;20059;-71
2020/12/16 01:59:58;;;;;;;57.80;25.20;;;;;;;7.16;100.00;101496.13;6275291;28;20044;-71
2020/12/16 02:03:03;;;;;;;56.67;24.30;;;;;;;7.05;100.00;101492.06;6275277;28;20098;-71
2020/12/16 02:06:06;;;;;;;67.47;25.63;;;;;;;6.97;100.00;101491.41;6274965;28;20459;-71
2020/12/16 02:09:10;;;;;;;50.67;22.60;;;;;;;6.86;100.00;101488.22;6274684;28;20459;-71
2020/12/16 02:12:13;;;;;;;47.47;23.40;;;;;;;6.81;100.00;101490.06;6274866;28;20448;-71
2020/12/16 02:15:14;;;;;;;44.80;21.52;;;;;;;6.70;100.00;101492.09;6275118;28;20049;-71
2020/12/16 02:18:15;;;;;;;43.63;21.05;;;;;;;6.63;100.00;101493.16;6274990;28;20045;-71
2020/12/16 02:21:16;;;;;;;38.72;21.02;;;;;;;6.55;100.00;101495.97;6274433;28;20428;-71
2020/12/16 02:24:20;;;;;;;54.20;21.58;;;;;;;6.44;100.00;101492.75;6274951;28;20048;-71
2020/12/16 02:27:22;;;;;;;47.22;21.17;;;;;;;6.37;100.00;101502.50;6274450;28;20057;-71
2020/12/16 02:30:23;;;;;;;35.60;18.92;;;;;;;6.28;100.00;101506.16;6274598;28;20048;-71
2020/12/16 02:33:23;;;;;;;40.63;20.58;;;;;;;6.16;100.00;101500.38;6274556;28;20524;-71
2020/12/16 02:36:24;;;;;;;39.80;21.10;;;;;;;6.12;100.00;101491.75;6274330;28;20139;-71
2020/12/16 02:39:25;;;;;;;40.70;18.98;;;;;;;6.07;100.00;101491.84;6273120;28;20049;-71
2020/12/16 02:42:29;;;;;;;59.47;19.73;;;;;;;5.96;100.00;101491.25;6274271;28;20041;-71
2020/12/16 02:45:30;;;;;;;41.58;19.33;;;;;;;5.90;100.00;101493.94;6274581;28;20048;-71
2020/12/16 02:48:31;;;;;;;46.35;21.15;;;;;;;5.85;100.00;101501.88;6274150;28;20159;-71
2020/12/16 02:51:32;;;;;;;67.55;20.27;;;;;;;5.85;100.00;101496.66;6273961;28;20118;-71
2020/12/16 02:54:33;;;;;;;57.65;19.50;;;;;;;5.82;100.00;101495.88;6274309;28;20052;-71
2020/12/16 02:57:34;;;;;;;55.47;18.55;;;;;;;5.84;100.00;101500.16;6274027;28;20466;-71
2020/12/16 03:00:35;;;;;;;76.13;21.45;;;;;;;5.79;100.00;101511.59;6273615;28;20494;-71
2020/12/16 03:03:36;;;;;;;88.72;17.50;;;;;;;5.80;100.00;101510.69;6273762;28;20049;-69
2020/12/16 03:06:37;;;;;;;53.97;17.95;;;;;;;5.86;100.00;101515.78;6273820;28;20057;-69
2020/12/16 03:09:37;;;;;;;30.95;17.33;;;;;;;5.92;100.00;101523.50;6273317;28;20052;-69
2020/12/16 03:12:39;;;;;;;90.88;18.65;;;;;;;5.88;100.00;101526.19;6273659;28;20045;-69
2020/12/16 03:15:40;;;;;;;53.28;17.75;;;;;;;5.88;100.00;101529.66;6273635;28;20052;-69
2020/12/16 03:18:41;;;;;;;55.28;16.42;;;;;;;5.95;100.00;101525.19;6273025;28;20060;-69
2020/12/16 03:21:42;;;;;;;42.30;17.98;;;;;;;5.93;100.00;101535.66;6273021;28;20045;-71
2020/12/16 03:24:43;;;;;;;100.43;19.98;;;;;;;5.92;100.00;101538.31;6273778;28;20052;-71
2020/12/16 03:27:45;;;;;;;46.47;16.55;;;;;;;5.89;100.00;101541.78;6272972;28;20413;-71
2020/12/16 03:30:45;;;;;;;80.05;17.98;;;;;;;5.85;100.00;101537.53;6272972;28;20052;-71
2020/12/16 03:33:47;;;;;;;64.70;18.23;;;;;;;5.84;100.00;101538.44;6273316;28;20182;-71
2020/12/16 03:36:48;;;;;;;75.65;16.25;;;;;;;5.75;100.00;101536.88;6273020;28;20041;-71
2020/12/16 03:39:49;;;;;;;52.90;15.75;;;;;;;5.70;100.00;101536.09;6272790;28;20426;-70
2020/12/16 03:42:50;;;;;;;48.78;15.38;;;;;;;5.68;100.00;101542.22;6270183;28;20048;-71
2020/12/16 03:45:52;;;;;;;36.15;13.65;;;;;;;5.68;100.00;101557.88;6272608;28;20060;-71
2020/12/16 03:48:53;;;;;;;98.38;16.67;;;;;;;5.65;100.00;101566.63;6271639;28;20087;-71
2020/12/16 03:51:56;;;;;;;26.85;13.23;;;;;;;5.66;100.00;101562.28;6272725;28;20513;-71
2020/12/16 03:54:56;;;;;;;30.92;12.88;;;;;;;5.58;100.00;101565.88;6272715;28;20398;-71
2020/12/16 03:57:58;;;;;;;32.38;13.68;;;;;;;5.42;100.00;101569.69;6272245;28;20084;-71
2020/12/16 04:01:03;;;;;;;31.17;14.32;;;;;;;5.43;100.00;101584.44;6272259;28;20052;-71
2020/12/16 04:04:04;;;;;;;30.13;12.82;;;;;;;5.42;100.00;101580.13;6272828;28;20048;-71
2020/12/16 04:07:05;;;;;;;45.55;14.98;;;;;;;5.34;100.00;101572.44;6272208;28;20045;-71
2020/12/16 04:10:06;;;;;;;92.60;15.43;;;;;;;5.28;100.00;101569.94;6272165;28;20052;-71
2020/12/16 04:13:08;;;;;;;24.42;13.27;;;;;;;5.24;100.00;101570.03;6272408;28;20045;-71
2020/12/16 04:16:11;;;;;;;40.70;14.45;;;;;;;5.18;100.00;101570.13;6272239;28;20495;-71
2020/12/16 04:19:12;;;;;;;22.15;12.77;;;;;;;5.12;100.00;101578.91;6271705;28;20060;-71
2020/12/16 04:22:13;;;;;;;47.78;13.80;;;;;;;5.01;100.00;101580.84;6272325;28;20045;-71
2020/12/16 04:25:14;;;;;;;22.23;12.93;;;;;;;4.97;100.00;101584.38;6272151;28;20501;-71
2020/12/16 04:28:15;;;;;;;20.90;13.45;;;;;;;4.94;100.00;101582.69;6271697;28;20102;-71
2020/12/16 04:31:17;;;;;;;37.75;14.88;;;;;;;4.95;100.00;101587.03;6271217;28;20171;-71
2020/12/16 04:34:18;;;;;;;22.10;13.43;;;;;;;4.94;100.00;101584.44;6271916;28;20060;-71
2020/12/16 04:37:19;;;;;;;49.47;17.05;;;;;;;4.88;100.00;101598.41;6272106;28;20045;-71
2020/12/16 04:40:20;;;;;;;111.72;22.67;;;;;;;4.82;100.00;101588.09;6271353;28;20123;-71
2020/12/16 04:43:23;;;;;;;149.88;28.60;;;;;;;4.78;100.00;101595.09;6271760;28;20056;-71
2020/12/16 04:46:29;;;;;;;132.07;28.45;;;;;;;4.77;100.00;101596.00;6271219;28;20055;-71
2020/12/16 04:49:30;;;;;;;124.20;27.00;;;;;;;4.77;100.00;101584.72;6271216;28;20056;-71
2020/12/16 04:52:31;;;;;;;101.03;24.60;;;;;;;4.73;100.00;101575.25;6271525;28;20060;-71
2020/12/16 04:55:33;;;;;;;107.07;27.80;;;;;;;4.67;100.00;101568.34;6271460;28;20102;-68
2020/12/16 04:58:35;;;;;;;88.93;33.47;;;;;;;4.67;100.00;101576.16;6270791;28;20052;-69
2020/12/16 05:01:39;;;;;;;137.73;40.17;;;;;;;4.67;100.00;101578.78;6270714;28;20045;-71
2020/12/16 05:04:40;;;;;;;190.93;45.03;;;;;;;4.69;100.00;101574.41;6270698;28;20452;-69
2020/12/16 05:07:41;;;;;;;140.52;53.25;;;;;;;4.71;100.00;101590.88;6270893;28;20056;-69
2020/12/16 05:10:43;;;;;;;196.05;57.58;;;;;;;4.79;100.00;101594.22;6270940;28;20056;-69
2020/12/16 05:13:45;;;;;;;182.52;61.08;;;;;;;4.81;100.00;101609.81;6271164;28;20053;-69
2020/12/16 05:16:58;;;;;;;150.93;61.50;;;;;;;4.80;100.00;101628.91;6270948;28;20543;-71
2020/12/16 05:19:59;;;;;;;178.32;57.25;;;;;;;4.75;100.00;101626.38;6269883;28;20044;-69
2020/12/16 05:23:00;;;;;;;169.43;51.75;;;;;;;4.72;100.00;101621.22;6270663;28;20409;-71
2020/12/16 05:26:03;;;;;;;167.75;54.42;;;;;;;4.79;100.00;101614.19;6267166;28;20670;-71
2020/12/16 05:29:05;;;;;;;407.75;52.78;;;;;;;4.86;100.00;101610.63;6270078;28;20076;-71
2020/12/16 05:32:20;;;;;;;203.73;52.75;;;;;;;4.87;100.00;101594.09;6270661;28;20402;-71
2020/12/16 05:35:24;;;;;;;89.20;38.05;;;;;;;4.91;100.00;101592.31;6270384;28;20079;-71
2020/12/16 05:38:24;;;;;;;89.25;29.67;;;;;;;4.92;100.00;101587.06;6269958;28;20060;-71
2020/12/16 05:41:26;;;;;;;123.57;26.33;;;;;;;4.83;100.00;101589.81;6270243;28;20131;-71
2020/12/16 05:44:28;;;;;;;66.28;19.83;;;;;;;4.82;100.00;101594.19;6270677;28;20049;-70
2020/12/16 05:47:29;;;;;;;61.08;17.90;;;;;;;4.84;100.00;101591.53;6270741;28;20045;-71
2020/12/16 05:50:38;;;;;;;40.60;15.60;;;;;;;4.81;100.00;101588.97;6270290;28;20049;-71
2020/12/16 05:53:39;;;;;;;;;;;;;;;4.76;100.00;101582.97;6271261;28;20049;-71
2020/12/16 05:56:40;;;;;;;85.47;17.02;;;;;;;4.76;100.00;101585.59;6270434;28;20331;-71
2020/12/16 05:59:42;;;;;;;61.03;16.40;;;;;;;4.75;100.00;101574.31;6270132;28;20190;-71
2020/12/16 06:02:44;;;;;;;148.00;17.20;;;;;;;4.68;100.00;101575.31;6270686;28;20056;-69
2020/12/16 06:05:48;;;;;;;35.38;13.07;;;;;;;4.58;100.00;101586.72;6270179;28;20056;-69
2020/12/16 06:08:49;;;;;;;50.72;14.25;;;;;;;4.51;100.00;101579.91;6269991;28;20044;-69
2020/12/16 06:11:54;;;;;;;38.40;14.45;;;;;;;4.42;100.00;101593.91;6270947;28;20092;-69
2020/12/16 06:15:06;;;;;;;34.47;13.15;;;;;;;4.31;100.00;101599.28;6275270;28;20152;-69
2020/12/16 06:18:09;;;;;;;38.83;13.75;;;;;;;4.23;100.00;101600.25;6274897;28;20091;-69
2020/12/16 06:21:11;;;;;;;42.63;12.82;;;;;;;4.20;100.00;101608.09;6274355;28;20048;-69
2020/12/16 06:24:19;;;;;;;34.42;14.10;;;;;;;4.10;100.00;101616.91;6274973;28;20049;-69
2020/12/16 06:27:28;;;;;;;33.17;14.32;;;;;;;3.90;100.00;101630.13;6274457;28;20547;-69
2020/12/16 06:30:32;;;;;;;37.55;13.63;;;;;;;3.83;100.00;101634.56;6274437;28;20052;-70
2020/12/16 06:33:42;;;;;;;26.77;14.77;;;;;;;3.85;100.00;101627.59;6274749;28;20041;-69
2020/12/16 06:36:45;;;;;;;26.98;15.77;;;;;;;3.89;100.00;101633.63;6274400;28;20045;-69
2020/12/16 06:39:46;;;;;;;54.75;16.98;;;;;;;3.90;100.00;101625.78;6274321;28;20053;-69
2020/12/16 06:42:47;;;;;;;34.65;15.23;;;;;;;3.83;100.00;101629.34;6274542;28;20056;-69
2020/12/16 06:45:49;;;;;;;56.17;15.50;;;;;;;3.80;100.00;101643.22;6274304;28;20049;-70
2020/12/16 06:48:50;;;;;;;30.40;15.52;;;;;;;3.77;100.00;101634.59;6273698;28;20060;-69
2020/12/16 06:51:52;;;;;;;29.58;15.90;;;;;;;3.75;100.00;101638.97;6274113;28;20048;-69
2020/12/16 06:54:53;;;;;;;38.95;14.98;;;;;;;3.71;100.00;101638.13;6274243;28;20045;-70
2020/12/16 06:57:54;;;;;;;46.53;16.70;;;;;;;3.65;100.00;101637.34;6273682;28;20056;-70
2020/12/16 07:01:10;;;;;;;26.95;15.15;;;;;;;3.62;100.00;101643.44;6273717;28;20048;-69
2020/12/16 07:04:12;;;;;;;35.10;15.40;;;;;;;3.63;100.00;101655.53;6274077;28;20049;-70
2020/12/16 07:07:42;;;;;;;32.78;13.75;;;;;;;3.60;100.00;101650.41;6273794;28;20056;-70
2020/12/16 07:10:45;;;;;;;25.98;13.95;;;;;;;3.54;100.00;101653.03;6273490;28;20072;-69
2020/12/16 07:14:11;;;;;;;55.50;13.75;;;;;;;3.54;100.00;101666.91;6273870;28;20056;-70
2020/12/16 07:17:12;;;;;;;28.02;13.18;;;;;;;3.51;100.00;101668.69;6273334;28;20052;-70
2020/12/16 07:20:31;;;;;;;44.72;14.27;;;;;;;3.43;100.00;101666.13;6269301;28;20094;-72
2020/12/16 07:23:38;;;;;;;;;;;;;;;3.45;100.00;101677.41;6273457;28;20045;-72
2020/12/16 07:26:46;;;;;;;45.65;14.65;;;;;;;3.45;100.00;101660.91;6273193;28;19921;-73
2020/12/16 07:29:55;;;;;;;41.25;13.95;;;;;;;3.42;100.00;101656.63;6273000;28;20067;-73
2020/12/16 07:33:13;;;;;;;87.30;16.73;;;;;;;3.37;100.00;101660.16;6273640;28;20045;-70
2020/12/16 07:36:16;;;;;;;28.25;12.27;;;;;;;3.36;100.00;101658.41;6272959;28;20107;-71
2020/12/16 07:39:16;;;;;;;33.15;14.88;;;;;;;3.31;100.00;101661.03;6272742;28;20052;-70
2020/12/16 07:42:25;;;;;;;47.45;14.63;;;;;;;3.27;100.00;101656.75;6273234;28;20045;-70
2020/12/16 07:45:27;;;;;;;49.88;17.42;;;;;;;3.24;100.00;101656.78;6272853;28;20559;-69
2020/12/16 07:48:28;;;;;;;34.72;15.63;;;;;;;3.22;100.00;101658.53;6273063;28;20049;-70
2020/12/16 07:51:29;;;;;;;43.55;14.95;;;;;;;3.17;100.00;101655.97;6272301;28;20059;-70
2020/12/16 07:54:30;;;;;;;50.45;18.95;;;;;;;3.15;100.00;101651.69;6272270;28;20173;-70
2020/12/16 07:57:33;;;;;;;40.63;18.02;;;;;;;3.14;100.00;101656.00;6272538;28;20082;-71
2020/12/16 08:00:35;;;;;;;42.28;16.63;;;;;;;3.13;100.00;101656.00;6272176;28;20132;-73
2020/12/16 08:03:37;;;;;;;45.13;18.77;;;;;;;3.14;100.00;101650.81;6272720;28;20055;-73
2020/12/16 08:06:41;;;;;;;48.97;16.98;;;;;;;3.12;100.00;101649.94;6272238;28;20056;-72
2020/12/16 08:09:56;;;;;;;36.40;15.32;;;;;;;3.10;100.00;101651.72;6271986;28;20052;-73
2020/12/16 08:12:57;;;;;;;45.83;15.05;;;;;;;3.07;100.00;101653.47;6272329;28;20048;-71
2020/12/16 08:16:05;;;;;;;28.67;14.90;;;;;;;2.98;100.00;101667.38;6272059;28;20053;-71
2020/12/16 08:19:06;;;;;;;29.40;14.90;;;;;;;2.92;100.00;101673.47;6271747;28;20137;-71
2020/12/16 08:22:12;;;;;;;64.50;15.02;;;;;;;3.02;100.00;101675.13;6272091;28;20485;-72
2020/12/16 08:25:15;;;;;;;31.25;15.45;;;;;;;3.08;100.00;101668.16;6271912;28;20045;-72
2020/12/16 08:28:24;;;;;;;31.63;15.57;;;;;;;3.13;100.00;101672.44;6271497;28;20053;-72
2020/12/16 08:31:31;;;;;;;26.60;15.07;;;;;;;3.15;100.00;101673.31;6271568;28;20044;-73
2020/12/16 08:34:40;;;;;;;31.88;15.43;;;;;;;3.15;100.00;101664.66;6272112;28;20079;-73
2020/12/16 08:37:45;;;;;;;28.85;15.55;;;;;;;3.14;100.00;101670.72;6270822;28;20528;-73
2020/12/16 08:40:48;;;;;;;41.70;14.35;;;;;;;3.10;100.00;101666.44;6271520;28;20053;-72
2020/12/16 08:43:49;;;;;;;32.20;15.77;;;;;;;3.15;100.00;101662.91;6271564;28;20044;-73
2020/12/16 08:46:51;;;;;;;37.47;16.45;;;;;;;3.20;100.00;101674.13;6268455;28;20059;-73
2020/12/16 08:49:53;;;;;;;31.83;15.85;;;;;;;3.27;100.00;101668.03;6266840;28;20052;-73
2020/12/16 08:52:54;;;;;;;56.63;16.65;;;;;;;3.33;100.00;101684.44;6270686;28;20056;-73
2020/12/16 08:55:55;;;;;;;31.88;16.27;;;;;;;3.32;100.00;101686.16;6270104;28;20052;-73
2020/12/16 08:59:07;;;;;;;30.67;14.30;;;;;;;3.36;100.00;101684.38;6270674;28;20053;-73
2020/12/16 09:02:09;;;;;;;33.67;15.27;;;;;;;3.33;100.00;101690.47;6271311;28;20049;-71
2020/12/16 09:05:10;;;;;;;39.92;16.08;;;;;;;3.36;100.00;101690.47;6270870;28;20478;-72
2020/12/16 09:08:14;;;;;;;27.73;14.80;;;;;;;3.37;100.00;101688.72;6270829;28;20246;-72
2020/12/16 09:11:18;;;;;;;33.63;15.85;;;;;;;3.38;100.00;101693.03;6269482;28;20049;-73
2020/12/16 09:14:19;;;;;;;38.17;15.65;;;;;;;3.45;100.00;101690.38;6271365;28;20053;-73
2020/12/16 09:17:23;;;;;;;30.02;14.20;;;;;;;3.47;100.00;101693.81;6270742;28;20114;-72
2020/12/16 09:20:24;;;;;;;31.77;15.25;;;;;;;3.48;100.00;101699.88;6270559;28;20057;-71
2020/12/16 09:23:26;;;;;;;33.40;15.38;;;;;;;3.58;100.00;101708.44;6270411;28;20099;-70
2020/12/16 09:26:34;;;;;;;31.42;14.98;;;;;;;3.67;100.00;101704.03;6269212;28;20102;-70
2020/12/16 09:29:43;;;;;;;35.80;16.45;;;;;;;3.73;100.00;101709.19;6270291;28;20493;-73
2020/12/16 09:32:45;;;;;;;34.58;16.67;;;;;;;3.78;100.00;101701.34;6270920;28;20508;-70
2020/12/16 09:35:53;;;;;;;32.78;15.75;;;;;;;3.83;100.00;101704.75;6270878;28;20048;-70
2020/12/16 09:38:55;;;;;;;37.63;16.80;;;;;;;3.87;100.00;101703.00;6270179;28;20056;-70
2020/12/16 09:41:56;;;;;;;35.72;16.83;;;;;;;3.90;100.00;101693.38;6270971;28;20071;-69
2020/12/16 09:45:08;;;;;;;40.95;17.75;;;;;;;3.99;100.00;101690.69;6268062;28;20077;-70
2020/12/16 09:48:10;;;;;;;37.53;15.60;;;;;;;4.06;100.00;101694.09;6268462;28;20095;-69
2020/12/16 09:51:15;;;;;;;37.25;17.73;;;;;;;4.12;100.00;101703.56;6274674;28;20076;-69
2020/12/16 09:54:27;;;;;;;38.65;17.58;;;;;;;4.20;100.00;101696.53;6274844;28;20128;-70
2020/12/16 09:57:28;;;;;;;39.65;16.92;;;;;;;4.26;100.00;101694.72;6274824;28;20056;-70
2020/12/16 10:00:29;;;;;;;42.83;18.40;;;;;;;4.31;100.00;101692.06;6273686;28;20494;-70
2020/12/16 10:03:31;;;;;;;38.78;18.25;;;;;;;4.38;100.00;101698.06;6274916;28;20509;-69
2020/12/16 10:06:32;;;;;;;39.60;18.77;;;;;;;4.45;100.00;101700.59;6275095;28;20051;-70
2020/12/16 10:09:35;;;;;;;30.52;15.82;;;;;;;4.56;100.00;101698.69;6274852;28;20057;-70
2020/12/16 10:12:36;;;;;;;35.97;17.30;;;;;;;4.66;100.00;101694.22;6275048;28;20107;-69
2020/12/16 10:15:37;;;;;;;34.65;16.83;;;;;;;4.72;100.00;101685.44;6273780;28;20044;-70
2020/12/16 10:18:39;;;;;;;42.22;18.48;;;;;;;4.77;100.00;101692.34;6273369;28;20053;-69
2020/12/16 10:21:40;;;;;;;44.38;18.98;;;;;;;4.88;100.00;101699.13;6273109;28;20052;-70
2020/12/16 10:24:41;;;;;;;50.25;23.33;;;;;;;4.98;100.00;101698.97;6274773;28;20572;-70
2020/12/16 10:27:42;;;;;;;55.17;23.38;;;;;;;5.08;100.00;101689.25;6274680;28;20049;-69
2020/12/16 10:30:43;;;;;;;57.72;23.27;;;;;;;5.17;100.00;101688.25;6274319;28;20084;-70
2020/12/16 10:33:45;;;;;;;56.65;22.48;;;;;;;5.26;100.00;101682.91;6274617;28;20048;-70
2020/12/16 10:36:49;;;;;;;51.47;22.90;;;;;;;5.36;100.00;101697.53;6274225;28;20563;-70
2020/12/16 10:39:51;;;;;;;56.55;23.90;;;;;;;5.44;100.00;101690.41;6273799;28;20045;-70
2020/12/16 10:42:52;;;;;;;55.83;24.30;;;;;;;5.51;100.00;101693.78;6274202;28;20048;-71
2020/12/16 10:45:52;;;;;;;58.63;25.58;;;;;;;5.59;100.00;101690.16;6274377;28;20048;-70
2020/12/16 10:48:54;;;;;;;64.50;26.80;;;;;;;5.71;100.00;101688.22;6272856;28;20056;-70
2020/12/16 10:51:55;;;;;;;58.72;24.48;;;;;;;5.77;100.00;101690.72;6273321;28;20053;-70
2020/12/16 10:54:56;;;;;;;61.25;24.83;;;;;;;5.84;100.00;101676.66;6273051;28;20045;-71
2020/12/16 10:57:58;;;;;;;52.47;23.63;;;;;;;5.89;100.00;101669.63;6273394;28;20056;-70
2020/12/16 11:00:59;;;;;;;46.80;23.15;;;;;;;5.95;100.00;101663.44;6273053;28;20049;-71
2020/12/16 11:03:59;;;;;;;56.30;25.20;;;;;;;5.99;100.00;101652.91;6273984;28;20049;-70
2020/12/16 11:07:00;;;;;;;55.30;25.55;;;;;;;6.04;100.00;101651.09;6273521;28;20049;-70
2020/12/16 11:10:01;;;;;;;50.30;23.73;;;;;;;6.16;100.00;101663.03;6273557;28;20107;-71
2020/12/16 11:13:04;;;;;;;55.08;25.80;;;;;;;6.30;100.00;101658.38;6272497;28;20135;-70
2020/12/16 11:16:05;;;;;;;53.05;26.90;;;;;;;6.35;100.00;101656.53;6273392;28;20136;-70
2020/12/16 11:19:06;;;;;;;57.03;25.65;;;;;;;6.47;100.00;101660.63;6272797;28;20723;-70
2020/12/16 11:22:07;;;;;;;54.60;25.02;;;;;;;6.56;100.00;101662.19;6273258;28;20045;-70
2020/12/16 11:25:08;;;;;;;56.50;26.08;;;;;;;6.68;100.00;101656.72;6273854;28;20049;-69
2020/12/16 11:28:10;;;;;;;55.08;26.05;;;;;;;6.80;100.00;101664.25;6273181;28;20052;-70
2020/12/16 11:31:11;;;;;;;55.13;25.52;;;;;;;6.90;100.00;101656.19;6272841;28;20045;-70
2020/12/16 11:34:13;;;;;;;56.42;25.50;;;;;;;7.07;100.00;101662.72;6272990;28;20118;-70
2020/12/16 11:37:14;;;;;;;52.85;26.02;;;;;;;7.07;100.00;101667.97;6271993;28;20049;-70
2020/12/16 11:40:16;;;;;;;51.97;24.58;;;;;;;7.17;100.00;101672.97;6272257;28;20072;-70
2020/12/16 11:43:17;;;;;;;48.80;24.92;;;;;;;7.17;100.00;101659.91;6272142;28;20458;-70
2020/12/16 11:46:18;;;;;;;54.30;26.13;;;;;;;7.24;100.00;101671.94;6272183;28;20417;-70
2020/12/16 11:49:20;;;;;;;49.20;24.73;;;;;;;7.29;100.00;101670.91;6271787;28;20052;-70
2020/12/16 11:52:20;;;;;;;46.85;24.55;;;;;;;7.45;100.00;101673.13;6272252;28;20056;-71
2020/12/16 11:55:21;;;;;;;51.25;24.85;;;;;;;7.40;100.00;101669.78;6271990;28;20474;-70
2020/12/16 11:58:24;;;;;;;49.03;24.33;;;;;;;7.50;100.00;101658.22;6268947;28;20049;-70
2020/12/16 12:01:25;;;;;;;50.90;24.67;;;;;;;7.51;100.00;101663.38;6271692;28;20045;-69
2020/12/16 12:04:26;;;;;;;55.20;26.98;;;;;;;7.56;100.00;101663.28;6271791;28;20547;-70
2020/12/16 12:07:27;;;;;;;48.22;25.17;;;;;;;7.55;100.00;101654.56;6271818;28;20098;-70
2020/12/16 12:10:28;;;;;;;49.65;24.60;;;;;;;7.59;100.00;101648.38;6271320;28;20609;-69
2020/12/16 12:13:29;;;;;;;55.85;25.55;;;;;;;7.57;100.00;101644.06;6271695;28;20124;-69
2020/12/16 12:16:30;;;;;;;56.22;26.80;;;;;;;7.62;100.00;101647.41;6271574;28;20103;-70
2020/12/16 12:19:32;;;;;;;49.58;26.20;;;;;;;7.65;100.00;101642.09;6270553;28;20041;-69
2020/12/16 12:22:33;;;;;;;46.75;24.00;;;;;;;7.87;100.00;101638.00;6271979;28;20056;-70
2020/12/16 12:25:33;;;;;;;57.40;27.80;;;;;;;8.04;100.00;101637.53;6271711;28;20041;-69
2020/12/16 12:28:35;;;;;;;42.80;24.02;;;;;;;8.15;100.00;101634.59;6271774;28;20110;-69
2020/12/16 12:31:36;;;;;;;41.53;23.42;;;;;;;8.09;100.00;101632.16;6271697;28;20052;-72
2020/12/16 12:34:37;;;;;;;41.25;23.63;;;;;;;8.15;100.00;101631.97;6271881;28;20128;-70
2020/12/16 12:37:38;;;;;;;44.22;23.98;;;;;;;8.01;100.00;101627.16;6271275;28;20458;-70
2020/12/16 12:40:39;;;;;;;40.42;22.58;;;;;;;8.02;100.00;101621.00;6271010;28;20480;-70
2020/12/16 12:43:41;;;;;;;35.60;20.75;;;;;;;8.00;100.00;101628.06;6271713;28;20045;-70
2020/12/16 12:46:42;;;;;;;36.75;20.20;;;;;;;8.05;100.00;101618.31;6271029;28;20049;-71
2020/12/16 12:49:43;;;;;;;40.83;23.33;;;;;;;8.01;100.00;101629.75;6270992;28;20049;-71
2020/12/16 12:52:44;;;;;;;36.50;20.88;;;;;;;8.10;100.00;101610.31;6271733;28;20048;-70
2020/12/16 12:55:44;;;;;;;39.47;21.80;;;;;;;8.03;100.00;101616.63;6271151;28;20048;-71
2020/12/16 12:58:46;;;;;;;41.00;22.85;;;;;;;8.08;100.00;101612.09;6270464;28;20045;-71
2020/12/16 13:01:49;;;;;;;39.97;22.63;;;;;;;7.96;100.00;101605.47;6269841;28;20417;-72
2020/12/16 13:04:50;;;;;;;39.85;21.90;;;;;;;7.94;100.00;101591.56;6268912;28;20087;-71
2020/12/16 13:07:51;;;;;;;37.33;21.48;;;;;;;7.91;100.00;101573.34;6269842;28;20052;-71
2020/12/16 13:10:51;;;;;;;38.28;22.38;;;;;;;7.84;100.00;101577.88;6269971;28;20076;-69
2020/12/16 13:13:53;;;;;;;38.45;19.98;;;;;;;7.81;100.00;101571.88;6271139;28;20052;-71
2020/12/16 13:16:54;;;;;;;38.33;21.70;;;;;;;7.75;100.00;101566.84;6270776;28;20052;-72
2020/12/16 13:19:55;;;;;;;41.25;22.65;;;;;;;7.81;100.00;101575.38;6270254;28;20048;-69
2020/12/16 13:22:56;;;;;;;37.25;20.77;;;;;;;7.76;100.00;101579.84;6268644;28;20432;-69
2020/12/16 13:25:56;;;;;;;36.17;20.25;;;;;;;7.77;100.00;101572.91;6269740;28;20429;-69
2020/12/16 13:28:58;;;;;;;40.00;22.15;;;;;;;7.77;100.00;101573.75;6269014;28;20045;-69
2020/12/16 13:31:59;;;;;;;39.63;20.83;;;;;;;7.75;100.00;101579.91;6269830;28;20055;-68
2020/12/16 13:35:00;;;;;;;37.92;21.42;;;;;;;7.70;100.00;101571.34;6267150;28;20041;-69
2020/12/16 13:38:01;;;;;;;36.42;20.52;;;;;;;7.71;100.00;101573.06;6265179;28;20046;-68
2020/12/16 13:41:04;;;;;;;40.13;21.17;;;;;;;7.68;100.00;101576.63;6269503;28;20398;-72
2020/12/16 13:44:06;;;;;;;38.83;22.00;;;;;;;7.67;100.00;101571.41;6268663;28;20541;-69
2020/12/16 13:47:07;;;;;;;32.83;19.98;;;;;;;7.63;100.00;101576.75;6269883;28;20045;-72
2020/12/16 13:50:08;;;;;;;36.22;19.48;;;;;;;7.52;100.00;101578.78;6269303;28;20041;-71